Huron, South Dakota
Current Conditions -  °F | °C
As of 3:55 PM on Sunday 23 Nov 2014 (Local Time) from KHON Reporting Station
Few Clouds Few Clouds  
Wind Chill: -4°   Ceiling: Unl
Heat Index:   Visibility: 10mi
Dew Point: -3°   Wind: 24mph
Humidity: 65%   Direction: 320°NW
Pressure: 29.55"   Gusts: 30mph
Location:  44.36°N, 98.21°W
Report Text: KHON 232155Z AUTO 32021G26KT 10SM FEW035 03/M03 A2955 RMK AO2 PK WND 32030/2103 SLP018 T00281033
Loading
Personal Weather Stations






























Interactive Weather Map New forecast layout! Learn more

10-Day Weather Forecast

Advertisements
Track Severe Weather on mobile